This is the latest recevied weather packets stored in our database for station/object DO7CRZ-10. If no packets are shown the sender has not sent any weather packets the latest 10 day(s).
| Time | Temp. | Humidity | Pressure | Rain* | Wind** | Luminosity | Snow |
|---|---|---|---|---|---|---|---|
| 1777972851 | 23.89° C | 41% | 1007 hPa | - | - | - | - |
| 1777971105 | 23.89° C | 41% | 1007 hPa | - | - | - | - |
| 1777969360 | 23.89° C | 40% | 1007 hPa | - | - | - | - |
| 1777967614 | 22.78° C | 40% | 1008 hPa | - | - | - | - |
| 1777965868 | 21.11° C | 44% | 1008 hPa | - | - | - | - |
| 1777964122 | 19.44° C | 45% | 1008 hPa | - | - | - | - |
| 1777962376 | 18.89° C | 45% | 1008 hPa | - | - | - | - |
| 1777960630 | 17.22° C | 43% | 1008 hPa | - | - | - | - |
| 1777958885 | 15.56° C | 47% | 1008 hPa | - | - | - | - |
| 1777957139 | 16.11° C | 45% | 1008 hPa | - | - | - | - |
| 1777955393 | 15° C | 45% | 1008 hPa | - | - | - | - |
| 1777953647 | 15° C | 45% | 1008 hPa | - | - | - | - |
| 1777951901 | 15° C | 43% | 1008 hPa | - | - | - | - |
| 1777950155 | 15° C | 44% | 1008 hPa | - | - | - | - |
| 1777948410 | 15.56° C | 43% | 1009 hPa | - | - | - | - |
| 1777946664 | 15° C | 45% | 1009 hPa | - | - | - | - |
| 1777944918 | 15.56° C | 44% | 1009 hPa | - | - | - | - |
| 1777943172 | 15.56° C | 44% | 1009 hPa | - | - | - | - |
| 1777941426 | 16.11° C | 41% | 1009 hPa | - | - | - | - |
| 1777939680 | 15.56° C | 43% | 1010 hPa | - | - | - | - |
| 1777937935 | 16.11° C | 40% | 1010 hPa | - | - | - | - |
| 1777936189 | 16.67° C | 40% | 1010 hPa | - | - | - | - |
| 1777934443 | 16.67° C | 40% | 1010 hPa | - | - | - | - |
| 1777932697 | 17.22° C | 39% | 1011 hPa | - | - | - | - |
| 1777930951 | 17.22° C | 39% | 1011 hPa | - | - | - | - |
* Rain since midnight (hover to see other rain measurements)
** Current wind speed in m/s (hover to see current wind gust speed)